sensor_id;sensor_type;location;lat;lon;timestamp;pressure;altitude;pressure_sealevel;temperature;humidity
43161;BME280;40968;52.342;5.528;2023-08-01T00:00:09;99834.00;;;15.64;88.88
43161;BME280;40968;52.342;5.528;2023-08-01T00:02:36;99819.31;;;15.58;88.81
43161;BME280;40968;52.342;5.528;2023-08-01T00:05:03;99873.81;;;15.86;88.67
43161;BME280;40968;52.342;5.528;2023-08-01T00:07:31;99779.22;;;15.30;88.60
43161;BME280;40968;52.342;5.528;2023-08-01T00:09:58;99693.75;;;14.81;88.68
43161;BME280;40968;52.342;5.528;2023-08-01T00:12:25;99864.03;;;15.85;88.38
43161;BME280;40968;52.342;5.528;2023-08-01T00:14:51;99787.44;;;15.45;88.21
43161;BME280;40968;52.342;5.528;2023-08-01T00:17:18;99869.78;;;15.82;88.15
43161;BME280;40968;52.342;5.528;2023-08-01T00:19:46;99801.09;;;15.52;88.13
43161;BME280;40968;52.342;5.528;2023-08-01T00:22:12;99685.00;;;14.79;87.75
43161;BME280;40968;52.342;5.528;2023-08-01T00:24:40;99813.59;;;15.53;87.86
43161;BME280;40968;52.342;5.528;2023-08-01T00:27:07;99859.66;;;15.76;87.82
43161;BME280;40968;52.342;5.528;2023-08-01T00:29:35;99804.47;;;15.46;87.88
43161;BME280;40968;52.342;5.528;2023-08-01T00:32:02;99847.81;;;15.69;87.56
43161;BME280;40968;52.342;5.528;2023-08-01T00:34:29;99846.13;;;15.68;87.58
43161;BME280;40968;52.342;5.528;2023-08-01T00:36:56;99745.34;;;15.03;87.57
43161;BME280;40968;52.342;5.528;2023-08-01T00:39:23;99777.50;;;15.21;87.71
43161;BME280;40968;52.342;5.528;2023-08-01T00:41:51;99739.94;;;15.03;87.65
43161;BME280;40968;52.342;5.528;2023-08-01T00:44:17;99650.94;;;14.45;87.65
43161;BME280;40968;52.342;5.528;2023-08-01T00:46:44;99831.31;;;15.55;87.57
43161;BME280;40968;52.342;5.528;2023-08-01T00:49:11;99822.34;;;15.55;87.66
43161;BME280;40968;52.342;5.528;2023-08-01T00:51:38;99490.25;;;13.53;87.40
43161;BME280;40968;52.342;5.528;2023-08-01T00:54:05;99819.16;;;15.51;87.52
43161;BME280;40968;52.342;5.528;2023-08-01T00:56:32;99569.41;;;14.02;87.65
43161;BME280;40968;52.342;5.528;2023-08-01T00:59:00;99796.22;;;15.39;87.68
43161;BME280;40968;52.342;5.528;2023-08-01T01:01:26;99799.06;;;15.46;87.76
43161;BME280;40968;52.342;5.528;2023-08-01T01:03:53;99656.03;;;14.65;87.87
43161;BME280;40968;52.342;5.528;2023-08-01T01:06:24;99499.16;;;13.62;87.58
43161;BME280;40968;52.342;5.528;2023-08-01T01:08:51;99696.78;;;14.86;87.82
43161;BME280;40968;52.342;5.528;2023-08-01T01:11:19;99744.13;;;15.22;87.87
43161;BME280;40968;52.342;5.528;2023-08-01T01:13:45;99742.94;;;15.24;87.88
43161;BME280;40968;52.342;5.528;2023-08-01T01:16:13;99771.06;;;15.47;87.97
43161;BME280;40968;52.342;5.528;2023-08-01T01:18:40;99777.47;;;15.46;88.11
43161;BME280;40968;52.342;5.528;2023-08-01T01:21:08;99732.84;;;15.18;88.01
43161;BME280;40968;52.342;5.528;2023-08-01T01:23:35;99699.47;;;14.95;87.86
43161;BME280;40968;52.342;5.528;2023-08-01T01:26:04;99622.63;;;14.49;87.80
43161;BME280;40968;52.342;5.528;2023-08-01T01:28:33;99763.66;;;15.32;88.17
43161;BME280;40968;52.342;5.528;2023-08-01T01:31:00;99641.31;;;14.51;87.89
43161;BME280;40968;52.342;5.528;2023-08-01T01:33:28;99782.25;;;15.35;88.15
43161;BME280;40968;52.342;5.528;2023-08-01T01:35:54;99675.88;;;14.72;88.27
43161;BME280;40968;52.342;5.528;2023-08-01T01:38:22;99768.25;;;15.32;88.35
43161;BME280;40968;52.342;5.528;2023-08-01T01:40:49;99767.38;;;15.31;88.42
43161;BME280;40968;52.342;5.528;2023-08-01T01:43:16;99759.84;;;15.18;88.40
43161;BME280;40968;52.342;5.528;2023-08-01T01:45:42;99770.44;;;15.28;88.52
43161;BME280;40968;52.342;5.528;2023-08-01T01:48:09;99703.88;;;14.87;88.43
43161;BME280;40968;52.342;5.528;2023-08-01T01:50:36;99696.09;;;14.76;88.43
43161;BME280;40968;52.342;5.528;2023-08-01T01:53:03;99658.00;;;14.54;88.55
43161;BME280;40968;52.342;5.528;2023-08-01T01:55:31;99718.00;;;14.89;88.61
43161;BME280;40968;52.342;5.528;2023-08-01T01:57:58;99771.47;;;15.19;88.82
43161;BME280;40968;52.342;5.528;2023-08-01T02:00:24;99496.81;;;13.51;88.64
43161;BME280;40968;52.342;5.528;2023-08-01T02:02:51;99579.50;;;14.00;88.64
43161;BME280;40968;52.342;5.528;2023-08-01T02:05:17;99707.56;;;14.78;88.82
43161;BME280;40968;52.342;5.528;2023-08-01T02:07:44;99723.75;;;14.86;88.80
43161;BME280;40968;52.342;5.528;2023-08-01T02:10:11;99764.91;;;15.13;88.91
43161;BME280;40968;52.342;5.528;2023-08-01T02:12:39;99651.25;;;14.42;88.76
43161;BME280;40968;52.342;5.528;2023-08-01T02:15:06;99766.91;;;15.11;88.86
43161;BME280;40968;52.342;5.528;2023-08-01T02:17:33;99586.56;;;14.01;88.77
43161;BME280;40968;52.342;5.528;2023-08-01T02:20:00;99773.66;;;15.07;88.84
43161;BME280;40968;52.342;5.528;2023-08-01T02:22:26;99725.28;;;14.81;88.99
43161;BME280;40968;52.342;5.528;2023-08-01T02:24:53;99686.81;;;14.62;88.94
43161;BME280;40968;52.342;5.528;2023-08-01T02:27:20;99754.78;;;15.07;89.05
43161;BME280;40968;52.342;5.528;2023-08-01T02:29:47;99746.16;;;15.03;89.00
43161;BME280;40968;52.342;5.528;2023-08-01T02:32:15;99714.47;;;14.89;89.03
43161;BME280;40968;52.342;5.528;2023-08-01T02:34:41;99729.81;;;14.97;89.13
43161;BME280;40968;52.342;5.528;2023-08-01T02:37:08;99652.44;;;14.48;89.00
43161;BME280;40968;52.342;5.528;2023-08-01T02:39:35;99760.84;;;15.01;88.90
43161;BME280;40968;52.342;5.528;2023-08-01T02:42:02;99405.03;;;12.94;88.89
43161;BME280;40968;52.342;5.528;2023-08-01T02:44:28;99683.28;;;14.62;89.18
43161;BME280;40968;52.342;5.528;2023-08-01T02:46:56;99727.13;;;14.88;89.17
43161;BME280;40968;52.342;5.528;2023-08-01T02:49:23;99759.16;;;15.08;89.31
43161;BME280;40968;52.342;5.528;2023-08-01T02:51:49;99724.75;;;14.85;89.35
43161;BME280;40968;52.342;5.528;2023-08-01T02:54:16;99689.72;;;14.69;89.36
43161;BME280;40968;52.342;5.528;2023-08-01T02:56:43;99600.22;;;14.07;89.31
43161;BME280;40968;52.342;5.528;2023-08-01T02:59:10;99757.47;;;15.07;89.55
43161;BME280;40968;52.342;5.528;2023-08-01T03:01:37;99562.00;;;13.87;89.36
43161;BME280;40968;52.342;5.528;2023-08-01T03:04:06;99682.44;;;14.61;89.52
43161;BME280;40968;52.342;5.528;2023-08-01T03:06:33;99720.41;;;14.84;89.73
43161;BME280;40968;52.342;5.528;2023-08-01T03:09:00;99620.94;;;14.23;89.47
43161;BME280;40968;52.342;5.528;2023-08-01T03:11:27;99727.13;;;14.88;89.66
43161;BME280;40968;52.342;5.528;2023-08-01T03:13:54;99697.81;;;14.69;89.71
43161;BME280;40968;52.342;5.528;2023-08-01T03:16:20;99546.81;;;13.78;89.53
43161;BME280;40968;52.342;5.528;2023-08-01T03:18:47;99576.81;;;14.00;89.71
43161;BME280;40968;52.342;5.528;2023-08-01T03:21:15;99711.44;;;14.84;89.67
43161;BME280;40968;52.342;5.528;2023-08-01T03:23:42;99474.09;;;13.37;89.35
43161;BME280;40968;52.342;5.528;2023-08-01T03:26:08;99663.56;;;14.53;89.69
43161;BME280;40968;52.342;5.528;2023-08-01T03:28:35;99654.28;;;14.39;89.73
43161;BME280;40968;52.342;5.528;2023-08-01T03:31:02;99677.72;;;14.55;89.53
43161;BME280;40968;52.342;5.528;2023-08-01T03:33:28;99765.56;;;15.07;89.73
43161;BME280;40968;52.342;5.528;2023-08-01T03:35:55;99717.69;;;14.76;89.68
43161;BME280;40968;52.342;5.528;2023-08-01T03:38:23;99759.31;;;15.06;89.86
43161;BME280;40968;52.342;5.528;2023-08-01T03:40:50;99762.88;;;15.07;89.74
43161;BME280;40968;52.342;5.528;2023-08-01T03:43:17;99642.66;;;14.30;89.53
43161;BME280;40968;52.342;5.528;2023-08-01T03:45:48;99763.03;;;15.05;89.56
43161;BME280;40968;52.342;5.528;2023-08-01T03:48:15;99706.56;;;14.71;89.49
43161;BME280;40968;52.342;5.528;2023-08-01T03:50:42;99735.53;;;14.85;89.63
43161;BME280;40968;52.342;5.528;2023-08-01T03:53:08;99761.53;;;15.03;89.65
43161;BME280;40968;52.342;5.528;2023-08-01T03:55:36;99494.59;;;13.38;89.48
43161;BME280;40968;52.342;5.528;2023-08-01T03:58:03;99701.81;;;14.56;89.57
43161;BME280;40968;52.342;5.528;2023-08-01T04:00:30;99718.03;;;14.73;89.86
43161;BME280;40968;52.342;5.528;2023-08-01T04:02:57;99744.66;;;14.84;89.92
43161;BME280;40968;52.342;5.528;2023-08-01T04:05:24;99722.72;;;14.71;90.01
43161;BME280;40968;52.342;5.528;2023-08-01T04:07:51;99733.19;;;14.82;90.09
43161;BME280;40968;52.342;5.528;2023-08-01T04:10:20;99766.91;;;15.03;90.40
43161;BME280;40968;52.342;5.528;2023-08-01T04:12:48;99628.34;;;14.21;90.48
43161;BME280;40968;52.342;5.528;2023-08-01T04:15:14;99766.56;;;15.06;90.63
43161;BME280;40968;52.342;5.528;2023-08-01T04:17:41;99704.22;;;14.68;90.73
43161;BME280;40968;52.342;5.528;2023-08-01T04:20:08;99764.69;;;15.06;90.81
43161;BME280;40968;52.342;5.528;2023-08-01T04:22:35;99763.53;;;15.09;90.96
43161;BME280;40968;52.342;5.528;2023-08-01T04:25:02;99753.59;;;15.09;91.03
43161;BME280;40968;52.342;5.528;2023-08-01T04:27:29;99749.88;;;15.11;90.99
43161;BME280;40968;52.342;5.528;2023-08-01T04:29:57;99698.13;;;14.82;90.99
43161;BME280;40968;52.342;5.528;2023-08-01T04:32:23;99744.31;;;15.12;90.83
43161;BME280;40968;52.342;5.528;2023-08-01T04:34:50;99714.31;;;14.90;90.84
43161;BME280;40968;52.342;5.528;2023-08-01T04:37:17;99629.69;;;14.42;90.86
43161;BME280;40968;52.342;5.528;2023-08-01T04:39:46;99743.97;;;15.15;90.68
43161;BME280;40968;52.342;5.528;2023-08-01T04:42:12;99743.97;;;15.15;90.81
43161;BME280;40968;52.342;5.528;2023-08-01T04:44:39;99467.53;;;13.39;90.64
43161;BME280;40968;52.342;5.528;2023-08-01T04:47:07;99573.75;;;14.03;90.77
43161;BME280;40968;52.342;5.528;2023-08-01T04:49:33;99690.72;;;14.76;90.73
43161;BME280;40968;52.342;5.528;2023-08-01T04:52:00;99762.84;;;15.15;90.97
43161;BME280;40968;52.342;5.528;2023-08-01T04:54:27;99719.53;;;14.92;90.87
43161;BME280;40968;52.342;5.528;2023-08-01T04:56:53;99749.72;;;15.12;90.98
43161;BME280;40968;52.342;5.528;2023-08-01T04:59:20;99655.63;;;14.51;90.85
43161;BME280;40968;52.342;5.528;2023-08-01T05:01:46;99711.28;;;14.85;90.92
43161;BME280;40968;52.342;5.528;2023-08-01T05:04:14;99751.06;;;15.16;91.11
43161;BME280;40968;52.342;5.528;2023-08-01T05:06:41;99751.06;;;15.16;91.10
43161;BME280;40968;52.342;5.528;2023-08-01T05:09:08;99748.19;;;15.18;91.43
43161;BME280;40968;52.342;5.528;2023-08-01T05:11:34;99675.53;;;14.67;91.39
43161;BME280;40968;52.342;5.528;2023-08-01T05:14:01;99749.69;;;15.20;91.44
43161;BME280;40968;52.342;5.528;2023-08-01T05:16:28;99755.78;;;15.22;91.57
43161;BME280;40968;52.342;5.528;2023-08-01T05:18:54;99683.63;;;14.75;91.52
43161;BME280;40968;52.342;5.528;2023-08-01T05:21:22;99757.28;;;15.25;91.65
43161;BME280;40968;52.342;5.528;2023-08-01T05:23:49;99531.69;;;13.77;91.79
43161;BME280;40968;52.342;5.528;2023-08-01T05:26:16;99694.75;;;14.72;92.82
43161;BME280;40968;52.342;5.528;2023-08-01T05:28:42;99725.44;;;14.96;93.27
43161;BME280;40968;52.342;5.528;2023-08-01T05:31:09;99598.88;;;14.12;93.45
43161;BME280;40968;52.342;5.528;2023-08-01T05:33:35;99442.38;;;13.06;92.31
43161;BME280;40968;52.342;5.528;2023-08-01T05:36:02;99770.63;;;15.02;92.85
43161;BME280;40968;52.342;5.528;2023-08-01T05:38:30;99781.41;;;15.10;92.63
43161;BME280;40968;52.342;5.528;2023-08-01T05:40:57;99744.31;;;14.87;92.09
43161;BME280;40968;52.342;5.528;2023-08-01T05:43:24;99647.91;;;14.40;92.54
43161;BME280;40968;52.342;5.528;2023-08-01T05:45:50;99676.53;;;14.57;92.84
43161;BME280;40968;52.342;5.528;2023-08-01T05:48:17;99714.66;;;14.71;93.17
43161;BME280;40968;52.342;5.528;2023-08-01T05:50:44;99718.34;;;14.86;93.05
43161;BME280;40968;52.342;5.528;2023-08-01T05:53:10;99786.13;;;15.24;93.25
43161;BME280;40968;52.342;5.528;2023-08-01T05:55:38;99740.25;;;15.00;93.12
43161;BME280;40968;52.342;5.528;2023-08-01T05:58:05;99654.97;;;14.49;93.10
43161;BME280;40968;52.342;5.528;2023-08-01T06:00:32;99788.31;;;15.29;93.08
43161;BME280;40968;52.342;5.528;2023-08-01T06:02:58;99474.78;;;13.39;92.99
43161;BME280;40968;52.342;5.528;2023-08-01T06:05:25;99757.63;;;15.14;93.54
43161;BME280;40968;52.342;5.528;2023-08-01T06:07:52;99784.94;;;15.35;93.34
43161;BME280;40968;52.342;5.528;2023-08-01T06:10:19;99698.63;;;14.78;93.36
43161;BME280;40968;52.342;5.528;2023-08-01T06:12:47;99763.03;;;15.14;93.48
43161;BME280;40968;52.342;5.528;2023-08-01T06:15:14;99762.69;;;15.17;93.40
43161;BME280;40968;52.342;5.528;2023-08-01T06:17:41;99785.94;;;15.34;93.28
43161;BME280;40968;52.342;5.528;2023-08-01T06:20:08;99804.16;;;15.49;93.48
43161;BME280;40968;52.342;5.528;2023-08-01T06:22:35;99810.03;;;15.52;93.39
43161;BME280;40968;52.342;5.528;2023-08-01T06:25:02;99761.50;;;15.28;93.06
43161;BME280;40968;52.342;5.528;2023-08-01T06:27:28;99800.59;;;15.56;93.28
43161;BME280;40968;52.342;5.528;2023-08-01T06:29:56;99756.75;;;15.30;92.77
43161;BME280;40968;52.342;5.528;2023-08-01T06:32:23;99749.66;;;15.29;92.31
43161;BME280;40968;52.342;5.528;2023-08-01T06:34:50;99799.75;;;15.48;91.93
43161;BME280;40968;52.342;5.528;2023-08-01T06:37:16;99633.91;;;14.53;91.60
43161;BME280;40968;52.342;5.528;2023-08-01T06:39:43;99740.59;;;15.13;91.16
43161;BME280;40968;52.342;5.528;2023-08-01T06:42:10;99723.91;;;15.09;91.15
43161;BME280;40968;52.342;5.528;2023-08-01T06:44:36;99820.34;;;15.57;91.16
43161;BME280;40968;52.342;5.528;2023-08-01T06:47:05;99536.72;;;13.88;90.49
43161;BME280;40968;52.342;5.528;2023-08-01T06:49:32;99571.75;;;14.05;90.17
43161;BME280;40968;52.342;5.528;2023-08-01T06:51:58;99771.63;;;15.25;90.06
43161;BME280;40968;52.342;5.528;2023-08-01T06:54:25;99698.81;;;14.84;90.22
43161;BME280;40968;52.342;5.528;2023-08-01T06:56:52;99813.41;;;15.54;90.46
43161;BME280;40968;52.342;5.528;2023-08-01T06:59:18;99630.88;;;14.48;90.42
43161;BME280;40968;52.342;5.528;2023-08-01T07:01:46;99656.03;;;14.65;90.38
43161;BME280;40968;52.342;5.528;2023-08-01T07:04:14;99626.16;;;14.50;90.42
43161;BME280;40968;52.342;5.528;2023-08-01T07:06:41;99784.53;;;15.55;90.26
43161;BME280;40968;52.342;5.528;2023-08-01T07:09:08;99822.00;;;15.83;90.60
43161;BME280;40968;52.342;5.528;2023-08-01T07:11:35;99810.00;;;15.85;90.74
43161;BME280;40968;52.342;5.528;2023-08-01T07:14:02;99756.69;;;15.63;90.07
43161;BME280;40968;52.342;5.528;2023-08-01T07:16:28;99814.88;;;15.98;89.21
43161;BME280;40968;52.342;5.528;2023-08-01T07:18:55;99782.78;;;15.95;89.06
43161;BME280;40968;52.342;5.528;2023-08-01T07:21:23;99824.03;;;16.20;87.59
43161;BME280;40968;52.342;5.528;2023-08-01T07:23:51;99669.00;;;15.34;87.01
43161;BME280;40968;52.342;5.528;2023-08-01T07:26:18;99811.88;;;16.24;86.12
43161;BME280;40968;52.342;5.528;2023-08-01T07:28:44;99641.19;;;15.33;85.13
43161;BME280;40968;52.342;5.528;2023-08-01T07:31:11;99740.88;;;15.99;85.07
43161;BME280;40968;52.342;5.528;2023-08-01T07:33:38;99766.94;;;16.23;84.15
43161;BME280;40968;52.342;5.528;2023-08-01T07:36:04;99822.47;;;16.66;83.52
43161;BME280;40968;52.342;5.528;2023-08-01T07:38:32;99766.19;;;16.38;83.48
43161;BME280;40968;52.342;5.528;2023-08-01T07:41:02;99822.38;;;16.82;82.19
43161;BME280;40968;52.342;5.528;2023-08-01T07:43:29;99549.66;;;15.15;80.68
43161;BME280;40968;52.342;5.528;2023-08-01T07:45:56;99576.91;;;15.29;80.72
43161;BME280;40968;52.342;5.528;2023-08-01T07:48:23;99582.50;;;15.35;81.33
43161;BME280;40968;52.342;5.528;2023-08-01T07:50:50;99811.44;;;16.76;80.74
43161;BME280;40968;52.342;5.528;2023-08-01T07:53:17;99828.72;;;16.89;81.15
43161;BME280;40968;52.342;5.528;2023-08-01T07:55:45;99658.34;;;15.88;81.06
43161;BME280;40968;52.342;5.528;2023-08-01T07:58:11;99826.72;;;16.92;80.94
43161;BME280;40968;52.342;5.528;2023-08-01T08:00:38;99819.81;;;16.81;79.33
43161;BME280;40968;52.342;5.528;2023-08-01T08:03:04;99647.91;;;15.85;79.61
43161;BME280;40968;52.342;5.528;2023-08-01T08:05:33;99830.09;;;16.94;80.13
43161;BME280;40968;52.342;5.528;2023-08-01T08:08:03;99841.44;;;17.12;80.12
43161;BME280;40968;52.342;5.528;2023-08-01T08:10:30;99838.41;;;17.15;78.56
43161;BME280;40968;52.342;5.528;2023-08-01T08:12:58;99523.53;;;15.16;77.88
43161;BME280;40968;52.342;5.528;2023-08-01T08:15:25;99838.75;;;17.12;78.39
43161;BME280;40968;52.342;5.528;2023-08-01T08:17:51;99849.22;;;17.15;78.58
43161;BME280;40968;52.342;5.528;2023-08-01T08:20:18;99827.97;;;17.04;77.52
43161;BME280;40968;52.342;5.528;2023-08-01T08:22:45;99745.25;;;16.32;78.03
43161;BME280;40968;52.342;5.528;2023-08-01T08:25:11;99696.31;;;15.95;79.86
43161;BME280;40968;52.342;5.528;2023-08-01T08:27:38;99849.75;;;16.87;81.13
43161;BME280;40968;52.342;5.528;2023-08-01T08:30:07;99871.41;;;16.79;81.31
43161;BME280;40968;52.342;5.528;2023-08-01T08:32:35;99846.19;;;16.55;81.50
43161;BME280;40968;52.342;5.528;2023-08-01T08:35:01;99475.06;;;14.26;80.96
43161;BME280;40968;52.342;5.528;2023-08-01T08:37:28;99859.63;;;16.72;82.18
43161;BME280;40968;52.342;5.528;2023-08-01T08:39:55;99747.09;;;16.08;81.94
43161;BME280;40968;52.342;5.528;2023-08-01T08:42:21;99857.84;;;16.87;81.02
43161;BME280;40968;52.342;5.528;2023-08-01T08:44:50;99719.38;;;16.06;80.65
43161;BME280;40968;52.342;5.528;2023-08-01T08:47:25;99824.28;;;16.73;81.08
43161;BME280;40968;52.342;5.528;2023-08-01T08:49:52;99776.88;;;16.54;79.99
43161;BME280;40968;52.342;5.528;2023-08-01T08:52:21;99840.09;;;16.93;79.58
43161;BME280;40968;52.342;5.528;2023-08-01T08:54:49;99817.91;;;16.89;78.59
43161;BME280;40968;52.342;5.528;2023-08-01T08:57:15;99826.97;;;17.05;78.27
43161;BME280;40968;52.342;5.528;2023-08-01T08:59:43;99761.03;;;16.74;78.81
43161;BME280;40968;52.342;5.528;2023-08-01T09:02:10;99878.84;;;17.55;75.93
43161;BME280;40968;52.342;5.528;2023-08-01T09:04:38;99710.78;;;16.57;76.89
43161;BME280;40968;52.342;5.528;2023-08-01T09:07:08;99821.53;;;17.28;75.13
43161;BME280;40968;52.342;5.528;2023-08-01T09:09:36;99861.28;;;17.51;74.20
43161;BME280;40968;52.342;5.528;2023-08-01T09:12:04;99826.78;;;17.45;75.43
43161;BME280;40968;52.342;5.528;2023-08-01T09:14:31;99843.44;;;17.56;74.11
43161;BME280;40968;52.342;5.528;2023-08-01T09:17:05;99871.06;;;17.75;73.75
43161;BME280;40968;52.342;5.528;2023-08-01T09:19:32;99886.66;;;17.73;74.12
43161;BME280;40968;52.342;5.528;2023-08-01T09:22:01;99832.81;;;17.32;74.74
43161;BME280;40968;52.342;5.528;2023-08-01T09:24:27;99808.53;;;17.23;74.78
43161;BME280;40968;52.342;5.528;2023-08-01T09:27:02;99839.69;;;17.43;75.16
43161;BME280;40968;52.342;5.528;2023-08-01T09:29:29;99842.59;;;17.56;75.47
43161;BME280;40968;52.342;5.528;2023-08-01T09:31:57;99856.47;;;17.76;74.48
43161;BME280;40968;52.342;5.528;2023-08-01T09:34:25;99837.09;;;17.64;72.63
43161;BME280;40968;52.342;5.528;2023-08-01T09:36:57;99785.25;;;17.37;72.58
43161;BME280;40968;52.342;5.528;2023-08-01T09:39:26;99887.75;;;18.02;69.38
43161;BME280;40968;52.342;5.528;2023-08-01T09:41:55;99864.97;;;17.88;70.32
43161;BME280;40968;52.342;5.528;2023-08-01T09:44:22;99878.66;;;17.95;67.67
43161;BME280;40968;52.342;5.528;2023-08-01T09:46:55;99901.19;;;18.10;67.33
43161;BME280;40968;52.342;5.528;2023-08-01T09:49:22;99859.19;;;17.91;67.92
43161;BME280;40968;52.342;5.528;2023-08-01T09:51:50;99872.41;;;18.09;67.10
43161;BME280;40968;52.342;5.528;2023-08-01T09:54:17;99896.78;;;18.39;67.18
43161;BME280;40968;52.342;5.528;2023-08-01T09:56:47;99867.53;;;18.19;65.39
43161;BME280;40968;52.342;5.528;2023-08-01T09:59:17;99790.97;;;17.87;65.85
43161;BME280;40968;52.342;5.528;2023-08-01T10:01:47;99850.78;;;18.31;66.45
43161;BME280;40968;52.342;5.528;2023-08-01T10:04:15;99893.38;;;18.82;64.13
43161;BME280;40968;52.342;5.528;2023-08-01T10:06:43;99818.31;;;18.52;64.74
43161;BME280;40968;52.342;5.528;2023-08-01T10:09:12;99820.91;;;18.61;64.89
43161;BME280;40968;52.342;5.528;2023-08-01T10:11:40;99909.72;;;19.25;65.85
43161;BME280;40968;52.342;5.528;2023-08-01T10:14:09;99916.31;;;19.16;64.44
43161;BME280;40968;52.342;5.528;2023-08-01T10:16:36;99933.31;;;19.03;63.78
43161;BME280;40968;52.342;5.528;2023-08-01T10:19:06;99895.19;;;18.60;66.86
43161;BME280;40968;52.342;5.528;2023-08-01T10:21:33;99926.84;;;18.52;69.92
43161;BME280;40968;52.342;5.528;2023-08-01T10:24:00;99919.63;;;18.15;71.62
43161;BME280;40968;52.342;5.528;2023-08-01T10:26:29;99930.38;;;18.08;72.24
43161;BME280;40968;52.342;5.528;2023-08-01T10:28:55;99784.06;;;17.17;71.78
43161;BME280;40968;52.342;5.528;2023-08-01T10:31:25;99921.66;;;17.98;71.70
43161;BME280;40968;52.342;5.528;2023-08-01T10:33:52;99942.16;;;18.15;71.89
43161;BME280;40968;52.342;5.528;2023-08-01T10:36:19;99942.09;;;18.23;70.46
43161;BME280;40968;52.342;5.528;2023-08-01T10:38:48;99809.53;;;17.61;70.36
43161;BME280;40968;52.342;5.528;2023-08-01T10:41:19;99855.56;;;18.29;70.19
43161;BME280;40968;52.342;5.528;2023-08-01T10:43:46;99950.16;;;18.83;68.13
43161;BME280;40968;52.342;5.528;2023-08-01T10:46:13;99940.44;;;19.04;68.62
43161;BME280;40968;52.342;5.528;2023-08-01T10:48:49;99880.56;;;18.91;67.26
43161;BME280;40968;52.342;5.528;2023-08-01T10:51:16;99958.88;;;19.30;66.79
43161;BME280;40968;52.342;5.528;2023-08-01T10:53:43;99828.69;;;18.49;66.25
43161;BME280;40968;52.342;5.528;2023-08-01T10:56:16;99876.75;;;18.70;67.54
43161;BME280;40968;52.342;5.528;2023-08-01T10:58:43;99956.09;;;19.24;67.18
43161;BME280;40968;52.342;5.528;2023-08-01T11:01:10;99942.66;;;19.15;66.01
43161;BME280;40968;52.342;5.528;2023-08-01T11:03:37;99770.16;;;18.03;65.63
43161;BME280;40968;52.342;5.528;2023-08-01T11:06:06;99834.31;;;18.32;68.34
43161;BME280;40968;52.342;5.528;2023-08-01T11:08:36;99885.66;;;18.34;67.86
43161;BME280;40968;52.342;5.528;2023-08-01T11:11:04;99959.56;;;18.66;68.82
43161;BME280;40968;52.342;5.528;2023-08-01T11:13:31;99927.00;;;18.66;69.02
43161;BME280;40968;52.342;5.528;2023-08-01T11:16:01;99901.72;;;18.80;68.69
43161;BME280;40968;52.342;5.528;2023-08-01T11:18:28;99930.31;;;18.98;67.66
43161;BME280;40968;52.342;5.528;2023-08-01T11:20:55;99926.69;;;18.76;66.31
43161;BME280;40968;52.342;5.528;2023-08-01T11:23:29;99932.44;;;18.66;66.82
43161;BME280;40968;52.342;5.528;2023-08-01T11:25:56;99871.09;;;18.05;68.10
43161;BME280;40968;52.342;5.528;2023-08-01T11:28:22;99921.41;;;18.22;69.98
43161;BME280;40968;52.342;5.528;2023-08-01T11:30:49;99987.81;;;18.86;69.26
43161;BME280;40968;52.342;5.528;2023-08-01T11:33:19;99957.84;;;18.80;68.23
43161;BME280;40968;52.342;5.528;2023-08-01T11:35:50;99993.44;;;19.00;68.69
43161;BME280;40968;52.342;5.528;2023-08-01T11:38:17;99989.50;;;19.39;66.49
43161;BME280;40968;52.342;5.528;2023-08-01T11:40:46;99932.78;;;18.93;66.72
43161;BME280;40968;52.342;5.528;2023-08-01T11:43:14;99911.63;;;18.73;68.69
43161;BME280;40968;52.342;5.528;2023-08-01T11:45:48;99977.78;;;18.87;67.02
43161;BME280;40968;52.342;5.528;2023-08-01T11:48:15;99964.03;;;18.59;67.07
43161;BME280;40968;52.342;5.528;2023-08-01T11:50:43;99964.63;;;18.54;66.22
43161;BME280;40968;52.342;5.528;2023-08-01T11:53:17;99942.44;;;18.50;66.39
43161;BME280;40968;52.342;5.528;2023-08-01T11:55:45;99803.56;;;17.50;66.40
43161;BME280;40968;52.342;5.528;2023-08-01T11:58:12;99896.53;;;18.04;66.30
43161;BME280;40968;52.342;5.528;2023-08-01T12:00:39;99974.81;;;18.37;65.07
43161;BME280;40968;52.342;5.528;2023-08-01T12:03:07;99861.97;;;17.68;65.17
43161;BME280;40968;52.342;5.528;2023-08-01T12:05:38;99907.09;;;17.99;64.86
43161;BME280;40968;52.342;5.528;2023-08-01T12:08:10;99993.16;;;18.50;64.03
43161;BME280;40968;52.342;5.528;2023-08-01T12:10:37;100026.47;;;18.73;64.79
43161;BME280;40968;52.342;5.528;2023-08-01T12:13:05;100030.91;;;18.89;64.37
43161;BME280;40968;52.342;5.528;2023-08-01T12:15:32;99961.22;;;18.97;63.77
43161;BME280;40968;52.342;5.528;2023-08-01T12:17:58;100024.94;;;19.89;63.15
43161;BME280;40968;52.342;5.528;2023-08-01T12:20:25;100032.38;;;20.30;61.92
43161;BME280;40968;52.342;5.528;2023-08-01T12:22:52;99957.75;;;20.11;62.12
43161;BME280;40968;52.342;5.528;2023-08-01T12:25:18;99796.06;;;19.50;60.17
43161;BME280;40968;52.342;5.528;2023-08-01T12:27:45;100022.63;;;21.13;59.38
43161;BME280;40968;52.342;5.528;2023-08-01T12:30:13;99959.38;;;20.69;58.38
43161;BME280;40968;52.342;5.528;2023-08-01T12:32:40;99986.66;;;20.76;58.42
43161;BME280;40968;52.342;5.528;2023-08-01T12:35:07;100030.66;;;20.79;58.93
43161;BME280;40968;52.342;5.528;2023-08-01T12:37:34;100029.91;;;20.64;59.40
43161;BME280;40968;52.342;5.528;2023-08-01T12:40:01;99938.69;;;20.04;60.06
43161;BME280;40968;52.342;5.528;2023-08-01T12:42:29;100034.09;;;20.38;59.32
43161;BME280;40968;52.342;5.528;2023-08-01T12:44:55;99977.28;;;19.93;60.34
43161;BME280;40968;52.342;5.528;2023-08-01T12:47:23;99968.13;;;20.01;59.91
43161;BME280;40968;52.342;5.528;2023-08-01T12:49:50;99907.09;;;19.53;59.24
43161;BME280;40968;52.342;5.528;2023-08-01T12:52:22;100036.59;;;20.33;59.14
43161;BME280;40968;52.342;5.528;2023-08-01T12:54:49;100033.59;;;20.28;59.58
43161;BME280;40968;52.342;5.528;2023-08-01T12:57:16;99962.78;;;20.14;58.57
43161;BME280;40968;52.342;5.528;2023-08-01T12:59:43;100019.72;;;20.73;55.76